createdAt,value
2018-12-12T00:01:36.717Z,3.90
2018-12-12T00:04:04.400Z,4.10
2018-12-12T00:06:31.930Z,4.10
2018-12-12T00:08:59.438Z,4.20
2018-12-12T00:11:27.201Z,4.20
2018-12-12T00:13:54.718Z,4.10
2018-12-12T00:16:22.253Z,4.10
2018-12-12T00:18:49.757Z,4.10
2018-12-12T00:21:17.291Z,4.00
2018-12-12T00:23:44.788Z,3.90
2018-12-12T00:26:12.328Z,3.90
2018-12-12T00:28:39.850Z,4.00
2018-12-12T00:31:07.415Z,4.00
2018-12-12T00:33:34.920Z,3.90
2018-12-12T00:36:02.464Z,3.80
2018-12-12T00:38:30.044Z,3.80
2018-12-12T00:40:57.576Z,3.80
2018-12-12T00:43:25.102Z,3.60
2018-12-12T00:45:52.733Z,3.40
2018-12-12T00:48:20.236Z,3.30
2018-12-12T00:50:47.769Z,3.40
2018-12-12T00:53:15.260Z,3.40
2018-12-12T00:55:42.799Z,3.50
2018-12-12T00:58:10.302Z,3.40
2018-12-12T01:00:37.822Z,3.40
2018-12-12T01:03:05.319Z,3.50
2018-12-12T01:05:32.860Z,3.60
2018-12-12T01:08:00.630Z,3.60
2018-12-12T01:10:28.152Z,3.60
2018-12-12T01:12:55.680Z,3.60
2018-12-12T01:15:23.214Z,3.70
2018-12-12T01:17:50.754Z,3.70
2018-12-12T01:20:18.273Z,3.80
2018-12-12T01:22:45.902Z,3.80
2018-12-12T01:25:13.475Z,3.70
2018-12-12T01:27:41.077Z,3.70
2018-12-12T01:30:08.641Z,3.70
2018-12-12T01:32:36.187Z,3.70
2018-12-12T01:35:04.842Z,3.70
2018-12-12T01:37:32.387Z,3.70
2018-12-12T01:39:59.913Z,3.70
2018-12-12T01:42:27.449Z,3.80
2018-12-12T01:44:54.964Z,3.60
2018-12-12T01:47:22.529Z,3.80
2018-12-12T01:49:50.050Z,3.90
2018-12-12T01:52:17.566Z,3.90
2018-12-12T01:54:45.080Z,3.90
2018-12-12T01:57:12.660Z,3.90
2018-12-12T01:59:40.152Z,3.90
2018-12-12T02:02:07.698Z,3.80
2018-12-12T02:04:35.231Z,3.70
2018-12-12T02:07:02.753Z,3.80
2018-12-12T02:09:30.306Z,3.80
2018-12-12T02:11:57.842Z,3.80
2018-12-12T02:14:25.369Z,3.70
2018-12-12T02:16:52.906Z,3.70
2018-12-12T02:19:20.554Z,3.60
2018-12-12T02:21:48.093Z,3.60
2018-12-12T02:24:15.634Z,3.70
2018-12-12T02:26:43.160Z,3.70
2018-12-12T02:29:10.712Z,3.70
2018-12-12T02:31:38.221Z,3.80
2018-12-12T02:34:05.755Z,3.70
2018-12-12T02:36:33.496Z,3.60
2018-12-12T02:39:01.040Z,3.70
2018-12-12T02:41:28.575Z,3.70
2018-12-12T02:43:56.128Z,3.80
2018-12-12T02:46:23.637Z,3.80
2018-12-12T02:48:51.177Z,3.80
2018-12-12T02:51:18.712Z,3.70
2018-12-12T02:53:46.231Z,3.70
2018-12-12T02:56:13.738Z,3.80
2018-12-12T02:58:41.276Z,3.80
2018-12-12T03:01:08.812Z,3.80
2018-12-12T03:03:36.352Z,3.90
2018-12-12T03:06:03.971Z,3.80
2018-12-12T03:08:31.501Z,3.80
2018-12-12T03:10:59.024Z,3.80
2018-12-12T03:13:26.570Z,3.70
2018-12-12T03:15:54.071Z,3.70
2018-12-12T03:18:21.860Z,3.70
2018-12-12T03:20:49.424Z,3.80
2018-12-12T03:23:16.952Z,3.80
2018-12-12T03:25:44.504Z,3.60
2018-12-12T03:28:12.014Z,3.60
2018-12-12T03:30:39.567Z,3.70
2018-12-12T03:33:07.201Z,4.10
2018-12-12T03:35:34.759Z,4.30
2018-12-12T03:38:02.296Z,4.20
2018-12-12T03:40:30.285Z,4.10
2018-12-12T03:42:57.795Z,4.10
2018-12-12T03:45:25.351Z,4.10
2018-12-12T03:47:52.943Z,4.10
2018-12-12T03:50:20.474Z,4.10
2018-12-12T03:52:48.001Z,4.10
2018-12-12T03:55:15.538Z,4.00
2018-12-12T03:57:43.041Z,4.10
2018-12-12T04:00:10.572Z,4.10
2018-12-12T04:02:38.297Z,3.90
2018-12-12T04:05:05.937Z,4.00
2018-12-12T04:07:33.454Z,4.00
2018-12-12T04:10:00.990Z,4.10
2018-12-12T04:12:28.499Z,4.10
2018-12-12T04:14:56.279Z,4.00
2018-12-12T04:17:23.789Z,4.20
2018-12-12T04:19:51.362Z,4.10
2018-12-12T04:22:19.165Z,4.00
2018-12-12T04:24:46.901Z,4.20
2018-12-12T04:27:14.406Z,4.20
2018-12-12T04:29:41.918Z,3.90
2018-12-12T04:32:09.444Z,4.00
2018-12-12T04:34:36.976Z,4.10
2018-12-12T04:37:04.545Z,4.00
2018-12-12T04:39:32.056Z,4.00
2018-12-12T04:41:59.615Z,4.00
2018-12-12T04:44:27.174Z,3.90
2018-12-12T04:46:54.793Z,4.00
2018-12-12T04:49:22.291Z,3.90
2018-12-12T04:51:49.850Z,3.90
2018-12-12T04:54:17.377Z,3.90
2018-12-12T04:56:44.905Z,3.90
2018-12-12T04:59:12.798Z,4.00
2018-12-12T05:01:40.357Z,4.00
2018-12-12T05:04:07.861Z,4.00
2018-12-12T05:06:35.391Z,4.00
2018-12-12T05:09:03.337Z,4.10
2018-12-12T05:11:30.870Z,4.10
2018-12-12T05:13:58.387Z,4.00
2018-12-12T05:16:25.912Z,4.10
2018-12-12T05:18:53.413Z,4.00
2018-12-12T05:21:20.959Z,3.90
2018-12-12T05:23:48.465Z,3.80
2018-12-12T05:26:15.984Z,3.80
2018-12-12T05:28:43.474Z,3.80
2018-12-12T05:31:11.068Z,3.80
2018-12-12T05:33:38.563Z,3.70
2018-12-12T05:36:06.079Z,3.80
2018-12-12T05:38:33.560Z,3.90
2018-12-12T05:41:01.082Z,3.90
2018-12-12T05:43:28.581Z,3.80
2018-12-12T05:45:56.080Z,3.90
2018-12-12T05:48:23.625Z,3.90
2018-12-12T05:50:51.227Z,3.80
2018-12-12T05:53:18.749Z,3.80
2018-12-12T05:55:46.278Z,3.90
2018-12-12T05:58:13.800Z,3.80
2018-12-12T06:00:41.297Z,3.70
2018-12-12T06:03:08.818Z,3.70
2018-12-12T06:05:36.313Z,3.70
2018-12-12T06:08:03.896Z,3.70
2018-12-12T06:10:31.395Z,3.80
2018-12-12T06:12:58.919Z,3.80
2018-12-12T06:15:26.416Z,4.00
2018-12-12T06:17:53.942Z,3.80
2018-12-12T06:20:21.437Z,3.60
2018-12-12T06:22:48.958Z,3.60
2018-12-12T06:25:16.465Z,3.70
2018-12-12T06:27:43.992Z,3.70
2018-12-12T06:30:11.493Z,3.80
2018-12-12T06:32:39.016Z,3.80
2018-12-12T06:35:06.641Z,3.80
2018-12-12T06:37:34.198Z,3.90
2018-12-12T06:40:01.693Z,3.70
2018-12-12T06:42:29.532Z,3.70
2018-12-12T06:44:57.028Z,3.60
2018-12-12T06:47:24.551Z,3.60
2018-12-12T06:49:52.072Z,3.70
2018-12-12T06:52:19.607Z,3.80
2018-12-12T06:54:47.092Z,3.70
2018-12-12T06:57:14.619Z,3.70
2018-12-12T06:59:42.108Z,3.60
2018-12-12T07:02:09.607Z,3.70
2018-12-12T07:04:37.504Z,3.60
2018-12-12T07:07:06.067Z,3.70
2018-12-12T07:09:33.596Z,3.90
2018-12-12T07:12:01.088Z,3.80
2018-12-12T07:14:28.689Z,3.70
2018-12-12T07:16:56.221Z,3.90
2018-12-12T07:19:23.715Z,3.70
2018-12-12T07:21:51.325Z,3.50
2018-12-12T07:24:18.821Z,3.30
2018-12-12T07:26:46.354Z,3.60
2018-12-12T07:29:13.863Z,3.60
2018-12-12T07:31:41.453Z,3.50
2018-12-12T07:34:09.065Z,3.40
2018-12-12T07:36:36.950Z,3.30
2018-12-12T07:39:07.287Z,3.30
2018-12-12T07:41:34.824Z,3.20
2018-12-12T07:44:02.604Z,3.10
2018-12-12T07:46:30.665Z,3.30
2018-12-12T07:48:58.834Z,3.40
2018-12-12T07:51:26.372Z,3.60
2018-12-12T07:53:53.901Z,3.80
2018-12-12T07:56:21.401Z,3.90
2018-12-12T07:58:48.924Z,4.00
2018-12-12T08:01:16.521Z,3.90
2018-12-12T08:03:44.016Z,3.80
2018-12-12T08:06:11.549Z,3.90
2018-12-12T08:08:39.041Z,3.90
2018-12-12T08:11:06.573Z,3.90
2018-12-12T08:13:34.058Z,4.10
2018-12-12T08:16:02.024Z,4.00
2018-12-12T08:18:29.575Z,4.20
2018-12-12T08:20:57.079Z,4.30
2018-12-12T08:23:25.214Z,4.40
2018-12-12T08:25:52.714Z,4.30
2018-12-12T08:28:20.239Z,4.40
2018-12-12T08:30:47.775Z,4.50
2018-12-12T08:33:15.310Z,4.80
2018-12-12T08:35:42.845Z,5.00
2018-12-12T08:38:10.349Z,5.20
2018-12-12T08:40:37.896Z,5.20
2018-12-12T08:43:05.407Z,5.00
2018-12-12T08:45:32.899Z,4.90
2018-12-12T08:48:00.460Z,4.60
2018-12-12T08:50:27.955Z,4.60
2018-12-12T08:52:55.476Z,4.40
2018-12-12T08:55:22.980Z,4.20
2018-12-12T08:57:50.509Z,4.20
2018-12-12T09:00:18.140Z,4.30
2018-12-12T09:02:45.673Z,4.30
2018-12-12T09:05:13.210Z,4.30
2018-12-12T09:07:40.736Z,4.40
2018-12-12T09:10:08.233Z,4.50
2018-12-12T09:12:35.773Z,4.70
2018-12-12T09:15:05.045Z,4.80
2018-12-12T09:17:32.668Z,4.80
2018-12-12T09:20:00.205Z,4.50
2018-12-12T09:22:27.841Z,4.50
2018-12-12T09:24:55.369Z,4.70
2018-12-12T09:27:22.872Z,4.60
2018-12-12T09:29:50.413Z,4.70
2018-12-12T09:32:17.900Z,4.60
2018-12-12T09:34:45.432Z,4.80
2018-12-12T09:37:12.928Z,4.70
2018-12-12T09:39:40.458Z,4.60
2018-12-12T09:42:07.940Z,4.80
2018-12-12T09:44:35.638Z,4.80
2018-12-12T09:47:03.123Z,4.90
2018-12-12T09:49:30.658Z,4.80
2018-12-12T09:51:58.262Z,4.60
2018-12-12T09:54:25.816Z,4.80
2018-12-12T09:56:53.299Z,4.70
2018-12-12T09:59:20.801Z,5.00
2018-12-12T10:01:48.342Z,4.80
2018-12-12T10:04:16.787Z,5.20
2018-12-12T10:06:44.312Z,5.30
2018-12-12T10:09:11.803Z,5.20
2018-12-12T10:11:39.332Z,5.60
2018-12-12T10:14:06.840Z,5.30
2018-12-12T10:16:34.375Z,5.50
2018-12-12T10:19:01.862Z,5.70
2018-12-12T10:21:29.711Z,5.60
2018-12-12T10:23:57.209Z,5.30
2018-12-12T10:26:24.755Z,5.50
2018-12-12T10:28:52.236Z,5.50
2018-12-12T10:31:19.738Z,5.30
2018-12-12T10:33:47.264Z,5.50
2018-12-12T10:36:14.791Z,5.30
2018-12-12T10:38:42.281Z,5.20
2018-12-12T10:41:09.850Z,5.20
2018-12-12T10:43:37.393Z,5.30
2018-12-12T10:46:04.898Z,4.90
2018-12-12T10:48:32.431Z,4.80
2018-12-12T10:50:59.965Z,4.80
2018-12-12T10:53:27.510Z,4.70
2018-12-12T10:55:55.007Z,4.50
2018-12-12T10:58:22.533Z,4.50
2018-12-12T11:00:51.989Z,4.50
2018-12-12T11:06:14.858Z,4.90
2018-12-12T11:08:42.401Z,4.90
2018-12-12T11:11:09.945Z,4.90
2018-12-12T11:13:37.441Z,4.80
2018-12-12T11:16:05.285Z,4.90
2018-12-12T11:18:32.973Z,5.00
2018-12-12T11:21:00.660Z,5.20
2018-12-12T11:23:28.201Z,5.40
2018-12-12T11:25:55.722Z,5.70
2018-12-12T11:28:23.266Z,5.70
2018-12-12T11:30:50.752Z,5.60
2018-12-12T11:33:18.284Z,5.70
2018-12-12T11:35:45.812Z,5.80
2018-12-12T11:38:13.341Z,5.80
2018-12-12T11:40:40.857Z,5.90
2018-12-12T11:43:08.493Z,6.00
2018-12-12T11:45:36.020Z,6.10
2018-12-12T11:48:03.508Z,6.00
2018-12-12T11:50:31.030Z,5.80
2018-12-12T11:52:58.553Z,5.80
2018-12-12T11:55:26.076Z,5.80
2018-12-12T11:57:53.635Z,5.90
2018-12-12T12:00:21.165Z,6.00
2018-12-12T12:02:48.916Z,6.30
2018-12-12T12:05:16.440Z,6.50
2018-12-12T12:07:43.940Z,6.50
2018-12-12T12:10:11.568Z,6.60
2018-12-12T12:12:39.095Z,6.40
2018-12-12T12:15:07.328Z,6.20
2018-12-12T12:17:34.864Z,6.20
2018-12-12T12:20:02.354Z,6.40
2018-12-12T12:22:29.888Z,6.50
2018-12-12T12:24:57.373Z,6.60
2018-12-12T12:27:24.947Z,6.70
2018-12-12T12:29:52.456Z,6.70
2018-12-12T12:32:20.005Z,6.80
2018-12-12T12:34:47.489Z,6.90
2018-12-12T12:37:14.983Z,6.80
2018-12-12T12:39:42.516Z,6.70
2018-12-12T12:42:10.013Z,6.90
2018-12-12T12:44:37.546Z,6.90
2018-12-12T12:47:05.039Z,6.80
2018-12-12T12:49:32.592Z,6.60
2018-12-12T12:52:00.095Z,6.40
2018-12-12T12:54:27.634Z,6.40
2018-12-12T12:56:55.129Z,6.30
2018-12-12T12:59:22.628Z,6.20
2018-12-12T13:01:50.154Z,6.00
2018-12-12T13:04:17.695Z,6.20
2018-12-12T13:06:45.189Z,6.20
2018-12-12T13:09:12.680Z,6.20
2018-12-12T13:11:40.205Z,6.20
2018-12-12T13:14:07.779Z,6.20
2018-12-12T13:16:35.498Z,6.30
2018-12-12T13:19:02.986Z,6.20
2018-12-12T13:21:30.488Z,6.10
2018-12-12T13:23:58.017Z,6.00
2018-12-12T13:26:25.846Z,6.10
2018-12-12T13:28:53.380Z,6.20
2018-12-12T13:31:20.909Z,5.90
2018-12-12T13:33:48.409Z,5.70
2018-12-12T13:36:15.956Z,5.60
2018-12-12T13:38:43.450Z,5.50
2018-12-12T13:41:10.940Z,5.70
2018-12-12T13:43:38.468Z,5.70
2018-12-12T13:46:05.957Z,5.90
2018-12-12T13:48:33.484Z,6.00
2018-12-12T13:51:00.973Z,6.00
2018-12-12T13:53:28.507Z,6.10
2018-12-12T13:55:56.009Z,5.70
2018-12-12T13:58:23.540Z,5.90
2018-12-12T14:00:51.068Z,5.80
2018-12-12T14:03:18.610Z,5.90
2018-12-12T14:05:46.102Z,5.90
2018-12-12T14:08:13.592Z,5.90
2018-12-12T14:10:41.126Z,5.90
2018-12-12T14:13:08.659Z,5.70
2018-12-12T14:15:36.201Z,5.60
2018-12-12T14:18:03.764Z,5.60
2018-12-12T14:20:31.301Z,5.80
2018-12-12T14:22:58.863Z,5.70
2018-12-12T14:25:26.414Z,5.50
2018-12-12T14:27:53.975Z,5.60
2018-12-12T14:30:21.810Z,5.60
2018-12-12T14:32:49.348Z,5.30
2018-12-12T14:35:16.833Z,5.30
2018-12-12T14:37:44.374Z,5.30
2018-12-12T14:40:11.874Z,5.30
2018-12-12T14:42:39.404Z,5.20
2018-12-12T14:45:07.078Z,5.30
2018-12-12T14:47:34.602Z,5.30
2018-12-12T14:50:02.143Z,5.30
2018-12-12T14:52:30.212Z,5.40
2018-12-12T14:54:57.736Z,5.50
2018-12-12T14:57:25.269Z,5.50
2018-12-12T14:59:52.804Z,5.30
2018-12-12T15:02:20.364Z,5.30
2018-12-12T15:04:47.898Z,5.30
2018-12-12T15:07:16.250Z,5.20
2018-12-12T15:09:43.742Z,5.10
2018-12-12T15:12:11.264Z,5.00
2018-12-12T15:14:38.803Z,5.00
2018-12-12T15:17:06.296Z,5.00
2018-12-12T15:19:33.843Z,5.10
2018-12-12T15:22:01.329Z,5.00
2018-12-12T15:24:28.817Z,4.90
2018-12-12T15:26:56.346Z,4.80
2018-12-12T15:29:24.090Z,5.00
2018-12-12T15:31:51.641Z,5.10
2018-12-12T15:34:19.514Z,5.10
2018-12-12T15:36:47.004Z,5.10
2018-12-12T15:39:14.542Z,5.10
2018-12-12T15:41:42.030Z,5.00
2018-12-12T15:44:09.839Z,4.80
2018-12-12T15:46:37.329Z,4.70
2018-12-12T15:49:04.880Z,4.70
2018-12-12T15:51:32.393Z,4.80
2018-12-12T15:53:59.916Z,5.00
2018-12-12T15:56:27.760Z,5.00
2018-12-12T15:58:55.258Z,5.10
2018-12-12T16:01:23.046Z,5.10
2018-12-12T16:03:50.578Z,5.00
2018-12-12T16:06:18.064Z,5.00
2018-12-12T16:08:45.595Z,5.00
2018-12-12T16:11:13.130Z,5.10
2018-12-12T16:13:40.660Z,5.10
2018-12-12T16:16:08.155Z,5.10
2018-12-12T16:18:35.681Z,5.10
2018-12-12T16:21:03.453Z,5.00
2018-12-12T16:23:30.949Z,5.00
2018-12-12T16:25:58.605Z,5.00
2018-12-12T16:28:26.136Z,5.00
2018-12-12T16:30:53.664Z,5.00
2018-12-12T16:33:21.209Z,4.90
2018-12-12T16:35:48.810Z,4.90
2018-12-12T16:38:16.341Z,5.00
2018-12-12T16:40:43.838Z,4.90
2018-12-12T16:43:11.389Z,4.80
2018-12-12T16:45:38.883Z,4.90
2018-12-12T16:48:06.377Z,4.80
2018-12-12T16:50:33.909Z,4.90
2018-12-12T16:53:01.439Z,4.70
2018-12-12T16:55:28.929Z,4.60
2018-12-12T16:57:56.465Z,4.70
2018-12-12T17:00:24.009Z,4.70
2018-12-12T17:02:51.510Z,4.60
2018-12-12T17:05:19.060Z,4.60
2018-12-12T17:07:46.592Z,4.80
2018-12-12T17:10:14.080Z,4.70
2018-12-12T17:12:41.648Z,4.70
2018-12-12T17:15:09.329Z,4.60
2018-12-12T17:17:36.817Z,4.60
2018-12-12T17:20:06.033Z,4.70
2018-12-12T17:22:33.534Z,4.80
2018-12-12T17:25:01.033Z,4.90
2018-12-12T17:27:28.581Z,4.70
2018-12-12T17:29:56.126Z,4.80
2018-12-12T17:32:23.730Z,4.80
2018-12-12T17:34:51.251Z,4.70
2018-12-12T17:37:19.804Z,4.50
2018-12-12T17:39:47.376Z,4.60
2018-12-12T17:42:14.906Z,4.60
2018-12-12T17:44:42.435Z,4.70
2018-12-12T17:47:09.934Z,4.80
2018-12-12T17:49:37.462Z,4.70
2018-12-12T17:52:04.953Z,4.70
2018-12-12T17:54:32.485Z,4.70
2018-12-12T17:56:59.989Z,4.80
2018-12-12T17:59:27.502Z,4.80
2018-12-12T18:01:54.999Z,4.70
2018-12-12T18:04:22.514Z,4.40
2018-12-12T18:06:50.012Z,4.30
2018-12-12T18:09:17.535Z,4.20
2018-12-12T18:11:45.128Z,4.10
2018-12-12T18:14:12.673Z,4.20
2018-12-12T18:16:40.341Z,4.30
2018-12-12T18:19:07.864Z,4.10
2018-12-12T18:21:35.797Z,4.10
2018-12-12T18:24:03.399Z,4.30
2018-12-12T18:26:30.896Z,4.30
2018-12-12T18:28:58.413Z,4.10
2018-12-12T18:31:25.942Z,4.20
2018-12-12T18:33:53.465Z,4.00
2018-12-12T18:36:20.963Z,4.00
2018-12-12T18:38:48.484Z,4.10
2018-12-12T18:41:15.979Z,4.00
2018-12-12T18:43:43.559Z,4.00
2018-12-12T18:46:11.305Z,4.10
2018-12-12T18:48:38.833Z,4.00
2018-12-12T18:51:06.349Z,4.10
2018-12-12T18:53:33.859Z,4.10
2018-12-12T18:56:01.373Z,4.10
2018-12-12T18:58:28.889Z,4.10
2018-12-12T19:00:56.412Z,4.10
2018-12-12T19:03:23.908Z,4.10
2018-12-12T19:05:51.429Z,3.90
2018-12-12T19:08:18.920Z,3.90
2018-12-12T19:10:46.438Z,3.90
2018-12-12T19:13:13.942Z,4.00
2018-12-12T19:15:43.025Z,4.10
2018-12-12T19:18:10.642Z,4.20
2018-12-12T19:20:38.157Z,4.10
2018-12-12T19:23:05.923Z,4.20
2018-12-12T19:25:33.452Z,4.20
2018-12-12T19:28:00.948Z,4.20
2018-12-12T19:30:28.505Z,4.10
2018-12-12T19:32:56.004Z,4.30
2018-12-12T19:35:23.869Z,4.20
2018-12-12T19:37:51.377Z,4.20
2018-12-12T19:40:18.915Z,4.30
2018-12-12T19:42:46.440Z,4.20
2018-12-12T19:45:13.938Z,4.20
2018-12-12T19:47:41.469Z,4.30
2018-12-12T19:50:09.038Z,4.10
2018-12-12T19:52:36.554Z,4.00
2018-12-12T19:55:04.595Z,3.90
2018-12-12T19:57:32.122Z,4.00
2018-12-12T19:59:59.617Z,4.10
2018-12-12T20:02:27.141Z,3.90
2018-12-12T20:04:54.635Z,3.70
2018-12-12T20:07:22.174Z,4.00
2018-12-12T20:09:49.751Z,3.90
2018-12-12T20:12:17.273Z,3.90
2018-12-12T20:14:44.837Z,3.90
2018-12-12T20:17:12.414Z,4.10
2018-12-12T20:19:39.905Z,4.20
2018-12-12T20:22:07.424Z,4.20
2018-12-12T20:24:34.916Z,4.20
2018-12-12T20:27:02.436Z,4.30
2018-12-12T20:29:29.932Z,4.20
2018-12-12T20:31:57.459Z,4.20
2018-12-12T20:34:24.994Z,4.10
2018-12-12T20:36:52.671Z,4.10
2018-12-12T20:39:20.202Z,4.10
2018-12-12T20:41:47.697Z,4.00
2018-12-12T20:44:15.212Z,4.10
2018-12-12T20:46:42.716Z,4.10
2018-12-12T20:49:10.306Z,4.00
2018-12-12T20:51:37.806Z,3.90
2018-12-12T20:54:05.329Z,3.80
2018-12-12T20:56:32.816Z,3.80
2018-12-12T20:59:00.378Z,3.80
2018-12-12T21:01:28.702Z,3.80
2018-12-12T21:03:56.216Z,3.80
2018-12-12T21:06:23.802Z,3.90
2018-12-12T21:08:51.643Z,3.80
2018-12-12T21:11:19.149Z,3.70
2018-12-12T21:13:46.669Z,3.70
2018-12-12T21:16:14.155Z,3.60
2018-12-12T21:18:41.672Z,3.60
2018-12-12T21:21:09.165Z,3.60
2018-12-12T21:23:36.686Z,3.70
2018-12-12T21:26:04.649Z,3.80
2018-12-12T21:28:32.171Z,3.80
2018-12-12T21:30:59.661Z,3.70
2018-12-12T21:33:27.174Z,3.60
2018-12-12T21:36:00.732Z,3.60
2018-12-12T21:38:24.225Z,3.70
2018-12-12T21:40:51.713Z,3.70
2018-12-12T21:43:19.223Z,3.60
2018-12-12T21:45:46.735Z,3.80
2018-12-12T21:48:14.871Z,3.80
2018-12-12T21:50:42.790Z,3.60
2018-12-12T21:53:10.542Z,3.80
2018-12-12T21:55:38.070Z,3.90
2018-12-12T21:58:05.568Z,3.70
2018-12-12T22:00:34.521Z,3.50
2018-12-12T22:03:02.251Z,3.60
2018-12-12T22:05:29.740Z,3.50
2018-12-12T22:07:57.274Z,3.60
2018-12-12T22:10:24.845Z,3.70
2018-12-12T22:12:52.380Z,3.50
2018-12-12T22:15:19.877Z,3.50
2018-12-12T22:17:47.411Z,3.50
2018-12-12T22:20:14.919Z,3.50
2018-12-12T22:22:42.542Z,3.40
2018-12-12T22:25:10.038Z,3.40
2018-12-12T22:27:37.533Z,3.30
2018-12-12T22:30:05.236Z,3.30
2018-12-12T22:32:32.738Z,3.20
2018-12-12T22:35:00.325Z,3.40
2018-12-12T22:37:27.893Z,3.30
2018-12-12T22:39:55.381Z,3.30
2018-12-12T22:42:22.908Z,3.30
2018-12-12T22:44:50.438Z,3.30
2018-12-12T22:47:18.095Z,3.40
2018-12-12T22:49:45.623Z,3.50
2018-12-12T22:52:13.155Z,3.30
2018-12-12T22:54:40.686Z,3.10
2018-12-12T22:57:08.191Z,3.30
2018-12-12T22:59:35.725Z,3.30
2018-12-12T23:02:03.226Z,3.30
2018-12-12T23:04:30.758Z,3.40
2018-12-12T23:06:58.241Z,3.30
2018-12-12T23:09:25.773Z,3.30
2018-12-12T23:11:53.526Z,3.10
2018-12-12T23:14:21.052Z,3.00
2018-12-12T23:16:48.577Z,3.00
2018-12-12T23:19:16.104Z,3.10
2018-12-12T23:21:43.637Z,3.20
2018-12-12T23:24:11.131Z,3.00
2018-12-12T23:26:38.664Z,2.80
2018-12-12T23:29:06.154Z,2.80
2018-12-12T23:31:33.689Z,2.90
2018-12-12T23:34:01.190Z,2.70
2018-12-12T23:36:29.284Z,2.60
2018-12-12T23:38:56.777Z,2.50
2018-12-12T23:41:24.437Z,2.50
2018-12-12T23:43:51.936Z,2.30
2018-12-12T23:46:19.435Z,2.40
2018-12-12T23:48:46.968Z,2.30
2018-12-12T23:51:14.512Z,2.20
2018-12-12T23:53:42.001Z,2.20
2018-12-12T23:56:09.492Z,2.20
2018-12-12T23:58:37.019Z,2.10
